createdAt,value
2022-10-22T00:01:56.877Z,97703.03
2022-10-22T00:04:26.987Z,97712.34
2022-10-22T00:06:57.065Z,97717.70
2022-10-22T00:09:26.729Z,97713.54
2022-10-22T00:11:56.966Z,97710.52
2022-10-22T00:14:27.047Z,97709.16
2022-10-22T00:16:57.474Z,97706.76
2022-10-22T00:19:28.971Z,97712.63
2022-10-22T00:21:58.678Z,97708.98
2022-10-22T00:24:27.340Z,97709.60
2022-10-22T00:26:56.638Z,97711.69
2022-10-22T00:29:25.842Z,97705.02
2022-10-22T00:34:25.084Z,97698.55
2022-10-22T00:36:54.048Z,97694.20
2022-10-22T00:39:24.566Z,97696.00
2022-10-22T00:41:54.492Z,97690.66
2022-10-22T00:44:43.982Z,97693.45
2022-10-22T00:47:13.794Z,97688.96
2022-10-22T00:49:43.914Z,97689.16
2022-10-22T00:52:14.992Z,97681.04
2022-10-22T00:54:45.752Z,97678.31
2022-10-22T00:57:16.673Z,97675.55
2022-10-22T00:59:46.936Z,97678.42
2022-10-22T01:02:17.165Z,97681.64
2022-10-22T01:04:46.968Z,97674.70
2022-10-22T01:07:21.089Z,97676.08
2022-10-22T01:10:03.794Z,97681.35
2022-10-22T01:12:33.116Z,97684.01
2022-10-22T01:15:12.323Z,97682.99
2022-10-22T01:18:01.091Z,97674.93
2022-10-22T01:20:49.069Z,97670.16
2022-10-22T01:23:23.955Z,97670.70
2022-10-22T01:26:05.688Z,97675.70
2022-10-22T01:28:47.948Z,97673.49
2022-10-22T01:31:19.362Z,97672.77
2022-10-22T01:33:50.311Z,97663.45
2022-10-22T01:39:07.390Z,97657.56
2022-10-22T01:41:39.219Z,97655.70
2022-10-22T01:44:23.416Z,97659.74
2022-10-22T01:46:56.239Z,97653.23
2022-10-22T01:49:30.894Z,97649.13
2022-10-22T01:52:03.172Z,97646.38
2022-10-22T01:54:35.086Z,97647.11
2022-10-22T01:57:13.383Z,97650.73
2022-10-22T01:59:59.308Z,97646.59
2022-10-22T02:02:42.927Z,97649.58
2022-10-22T02:05:20.888Z,97645.50
2022-10-22T02:07:57.782Z,97636.94
2022-10-22T02:10:28.910Z,97633.07
2022-10-22T02:12:59.723Z,97637.46
2022-10-22T02:15:30.420Z,97638.80
2022-10-22T02:18:01.909Z,97644.54
2022-10-22T02:20:33.609Z,97645.60
2022-10-22T02:23:02.652Z,97643.10
2022-10-22T02:25:33.281Z,97645.77
2022-10-22T02:28:04.208Z,97644.93
2022-10-22T02:30:34.464Z,97640.31
2022-10-22T02:33:10.169Z,97643.23
2022-10-22T02:35:41.736Z,97643.89
2022-10-22T02:38:12.689Z,97643.84
2022-10-22T02:40:42.865Z,97648.08
2022-10-22T02:43:13.762Z,97640.20
2022-10-22T02:45:43.675Z,97638.44
2022-10-22T02:48:12.669Z,97629.55
2022-10-22T02:50:42.122Z,97628.80
2022-10-22T02:53:10.612Z,97623.56
2022-10-22T02:55:40.481Z,97619.19
2022-10-22T02:58:10.658Z,97621.33
2022-10-22T03:00:40.567Z,97615.67
2022-10-22T03:03:10.366Z,97611.83
2022-10-22T03:05:40.154Z,97612.14
2022-10-22T03:08:10.656Z,97614.14
2022-10-22T03:10:40.244Z,97616.19
2022-10-22T03:13:10.224Z,97614.26
2022-10-22T03:15:39.624Z,97616.80
2022-10-22T03:18:09.715Z,97610.69
2022-10-22T03:20:39.938Z,97605.53
2022-10-22T03:23:10.007Z,97606.28
2022-10-22T03:25:41.227Z,97599.25
2022-10-22T03:28:11.451Z,97590.73
2022-10-22T03:30:41.519Z,97595.44
2022-10-22T03:33:11.198Z,97592.39
2022-10-22T03:35:44.399Z,97592.40
2022-10-22T03:38:14.197Z,97588.21
2022-10-22T03:40:45.202Z,97584.30
2022-10-22T03:43:13.910Z,97585.13
2022-10-22T03:45:42.597Z,97589.15
2022-10-22T03:48:11.433Z,97590.81
2022-10-22T03:50:40.905Z,97589.96
2022-10-22T03:53:11.118Z,97595.02
2022-10-22T03:55:41.789Z,97594.15
2022-10-22T03:58:11.369Z,97589.67
2022-10-22T04:00:40.445Z,97584.46
2022-10-22T04:03:09.090Z,97581.75
2022-10-22T04:05:37.642Z,97580.10
2022-10-22T04:08:07.020Z,97577.89
2022-10-22T04:10:36.127Z,97579.68
2022-10-22T04:13:05.679Z,97588.98
2022-10-22T04:15:34.399Z,97584.23
2022-10-22T04:18:03.092Z,97581.07
2022-10-22T04:20:32.317Z,97574.81
2022-10-22T04:23:01.604Z,97572.18
2022-10-22T04:25:30.165Z,97569.77
2022-10-22T04:27:59.081Z,97568.80
2022-10-22T04:30:29.497Z,97564.52
2022-10-22T04:32:58.025Z,97558.83
2022-10-22T04:35:26.792Z,97560.91
2022-10-22T04:37:56.459Z,97566.92
2022-10-22T04:40:24.865Z,97571.56
2022-10-22T04:42:53.626Z,97569.27
2022-10-22T04:45:22.055Z,97569.64
2022-10-22T04:47:51.107Z,97573.93
2022-10-22T04:50:19.795Z,97569.16
2022-10-22T04:52:48.522Z,97571.76
2022-10-22T04:55:17.120Z,97578.11
2022-10-22T04:57:46.021Z,97578.10
2022-10-22T05:00:16.768Z,97585.86
2022-10-22T05:02:49.106Z,97580.66
2022-10-22T05:05:17.528Z,97585.73
2022-10-22T05:07:46.316Z,97588.21
2022-10-22T05:10:15.107Z,97586.98
2022-10-22T05:12:43.685Z,97587.88
2022-10-22T05:15:12.123Z,97587.27
2022-10-22T05:17:41.041Z,97589.20
2022-10-22T05:20:09.947Z,97589.78
2022-10-22T05:22:38.223Z,97585.11
2022-10-22T05:25:07.012Z,97582.41
2022-10-22T05:27:35.595Z,97577.97
2022-10-22T05:30:04.075Z,97575.56
2022-10-22T05:32:32.419Z,97583.86
2022-10-22T05:35:00.729Z,97586.45
2022-10-22T05:37:28.955Z,97589.93
2022-10-22T05:40:06.775Z,97592.83
2022-10-22T05:42:45.944Z,97588.63
2022-10-22T05:45:14.649Z,97593.30
2022-10-22T05:47:43.089Z,97593.50
2022-10-22T05:50:11.395Z,97591.65
2022-10-22T05:52:40.043Z,97592.70
2022-10-22T05:55:08.953Z,97594.02
2022-10-22T05:57:37.227Z,97597.27
2022-10-22T06:00:05.959Z,97595.91
2022-10-22T06:02:34.255Z,97593.21
2022-10-22T06:05:02.568Z,97586.67
2022-10-22T06:07:31.150Z,97590.95
2022-10-22T06:09:59.836Z,97590.59
2022-10-22T06:12:28.222Z,97594.51
2022-10-22T06:14:57.207Z,97594.65
2022-10-22T06:17:25.893Z,97599.50
2022-10-22T06:19:54.419Z,97599.67
2022-10-22T06:22:23.058Z,97602.90
2022-10-22T06:24:52.155Z,97607.33
2022-10-22T06:27:20.530Z,97612.27
2022-10-22T06:29:49.117Z,97613.64
2022-10-22T06:32:17.492Z,97611.86
2022-10-22T06:34:46.796Z,97609.38
2022-10-22T06:37:15.793Z,97611.42
2022-10-22T06:39:45.189Z,97613.67
2022-10-22T06:42:13.570Z,97613.47
2022-10-22T06:44:42.358Z,97613.12
2022-10-22T06:47:10.645Z,97609.88
2022-10-22T06:49:39.331Z,97604.29
2022-10-22T06:52:07.697Z,97604.63
2022-10-22T06:54:36.379Z,97602.70
2022-10-22T06:57:04.963Z,97601.52
2022-10-22T06:59:33.339Z,97601.12
2022-10-22T07:02:01.727Z,97604.87
2022-10-22T07:04:30.098Z,97599.94
2022-10-22T07:06:58.585Z,97599.91
2022-10-22T07:09:28.701Z,97603.64
2022-10-22T07:11:56.974Z,97596.87
2022-10-22T07:14:25.352Z,97595.67
2022-10-22T07:16:53.828Z,97596.14
2022-10-22T07:19:22.113Z,97600.00
2022-10-22T07:21:50.488Z,97596.51
2022-10-22T07:24:19.481Z,97596.08
2022-10-22T07:26:48.840Z,97593.44
2022-10-22T07:29:17.116Z,97588.94
2022-10-22T07:31:45.687Z,97590.40
2022-10-22T07:34:14.247Z,97591.71
2022-10-22T07:36:42.592Z,97591.23
2022-10-22T07:39:10.857Z,97589.73
2022-10-22T07:41:39.171Z,97585.95
2022-10-22T07:44:07.615Z,97594.29
2022-10-22T07:46:36.112Z,97594.63
2022-10-22T07:49:04.576Z,97598.13
2022-10-22T07:51:32.934Z,97600.06
2022-10-22T07:54:01.418Z,97596.21
2022-10-22T07:56:29.656Z,97593.77
2022-10-22T07:58:58.080Z,97593.40
2022-10-22T08:01:26.444Z,97592.54
2022-10-22T08:03:54.761Z,97586.69
2022-10-22T08:06:23.342Z,97588.83
2022-10-22T08:08:51.965Z,97587.27
2022-10-22T08:11:20.841Z,97581.09
2022-10-22T08:13:49.507Z,97585.29
2022-10-22T08:16:17.882Z,97592.59
2022-10-22T08:18:46.255Z,97586.86
2022-10-22T08:21:15.970Z,97592.71
2022-10-22T08:23:44.449Z,97596.98
2022-10-22T08:26:12.727Z,97600.30
2022-10-22T08:28:41.310Z,97593.59
2022-10-22T08:31:10.409Z,97592.29
2022-10-22T08:33:39.601Z,97584.67
2022-10-22T08:36:08.599Z,97583.75
2022-10-22T08:38:37.077Z,97585.67
2022-10-22T08:41:24.396Z,97594.61
2022-10-22T08:43:56.055Z,97594.85
2022-10-22T08:46:36.614Z,97597.30
2022-10-22T08:51:43.619Z,97600.20
2022-10-22T08:54:23.459Z,97599.41
2022-10-22T08:57:01.672Z,97602.74
2022-10-22T08:59:35.474Z,97606.44
2022-10-22T09:02:09.178Z,97605.81
2022-10-22T09:04:43.292Z,97603.70
2022-10-22T09:07:11.981Z,97611.43
2022-10-22T09:09:43.024Z,97616.36
2022-10-22T09:12:20.118Z,97613.48
2022-10-22T09:14:49.297Z,97620.22
2022-10-22T09:17:36.421Z,97620.02
2022-10-22T09:20:28.932Z,97612.69
2022-10-22T09:23:13.726Z,97608.37
2022-10-22T09:25:42.615Z,97605.40
2022-10-22T09:28:11.308Z,97606.59
2022-10-22T09:30:40.710Z,97601.15
2022-10-22T09:33:20.264Z,97599.25
2022-10-22T09:35:54.055Z,97597.53
2022-10-22T09:38:25.706Z,97595.85
2022-10-22T09:40:55.514Z,97590.69
2022-10-22T09:43:23.992Z,97585.98
2022-10-22T09:46:03.435Z,97583.49
2022-10-22T09:48:37.696Z,97581.12
2022-10-22T09:51:06.224Z,97587.27
2022-10-22T09:53:39.215Z,97596.34
2022-10-22T09:56:17.834Z,97599.63
2022-10-22T09:58:49.603Z,97599.98
2022-10-22T10:01:22.576Z,97608.42
2022-10-22T10:03:51.475Z,97598.50
2022-10-22T10:06:21.274Z,97600.71
2022-10-22T10:08:50.270Z,97597.25
2022-10-22T10:11:38.111Z,97592.95
2022-10-22T10:14:18.463Z,97594.75
2022-10-22T10:16:50.322Z,97590.03
2022-10-22T10:19:21.366Z,97587.55
2022-10-22T10:22:09.097Z,97584.20
2022-10-22T10:24:45.786Z,97584.97
2022-10-22T10:27:27.005Z,97580.71
2022-10-22T10:30:01.370Z,97578.93
2022-10-22T10:32:29.748Z,97578.19
2022-10-22T10:35:07.447Z,97584.45
2022-10-22T10:37:41.657Z,97582.77
2022-10-22T10:40:28.570Z,97583.33
2022-10-22T10:43:11.387Z,97579.31
2022-10-22T10:45:42.733Z,97577.64
2022-10-22T10:48:17.266Z,97576.31
2022-10-22T10:50:48.710Z,97568.28
2022-10-22T10:53:35.726Z,97571.48
2022-10-22T10:56:22.439Z,97564.67
2022-10-22T10:59:13.845Z,97564.31
2022-10-22T11:02:18.785Z,97560.36
2022-10-22T11:05:05.906Z,97557.13
2022-10-22T11:08:09.512Z,97553.95
2022-10-22T11:10:37.782Z,97556.76
2022-10-22T11:13:14.455Z,97555.48
2022-10-22T11:15:45.392Z,97545.08
2022-10-22T11:18:36.709Z,97537.90
2022-10-22T11:21:21.882Z,97536.51
2022-10-22T11:23:57.949Z,97540.71
2022-10-22T11:26:38.718Z,97542.73
2022-10-22T11:29:11.797Z,97538.98
2022-10-22T11:31:41.217Z,97537.40
2022-10-22T11:34:34.320Z,97537.77
2022-10-22T11:37:05.501Z,97531.30
2022-10-22T11:39:43.109Z,97523.67
2022-10-22T11:42:21.925Z,97517.97
2022-10-22T11:45:01.458Z,97516.24
2022-10-22T11:47:35.061Z,97512.92
2022-10-22T11:50:25.680Z,97514.70
2022-10-22T11:53:03.563Z,97510.89
2022-10-22T11:55:50.891Z,97511.45
2022-10-22T11:58:30.883Z,97507.92
2022-10-22T12:01:02.285Z,97497.06
2022-10-22T12:03:33.437Z,97496.41
2022-10-22T12:06:12.359Z,97499.51
2022-10-22T12:08:43.851Z,97499.56
2022-10-22T12:11:12.292Z,97501.89
2022-10-22T12:14:02.384Z,97490.77
2022-10-22T12:16:54.522Z,97491.29
2022-10-22T12:19:22.476Z,97486.17
2022-10-22T12:21:57.921Z,97493.65
2022-10-22T12:24:29.983Z,97490.77
2022-10-22T12:26:58.566Z,97482.02
2022-10-22T12:29:28.067Z,97478.43
2022-10-22T12:31:57.943Z,97477.89
2022-10-22T12:34:26.468Z,97475.64
2022-10-22T12:36:54.846Z,97477.80
2022-10-22T12:39:26.398Z,97478.46
2022-10-22T12:41:55.495Z,97477.15
2022-10-22T12:44:23.977Z,97471.92
2022-10-22T12:46:56.010Z,97473.68
2022-10-22T12:49:36.721Z,97477.91
2022-10-22T12:52:08.805Z,97476.52
2022-10-22T12:54:40.323Z,97473.83
2022-10-22T12:57:14.235Z,97479.39
2022-10-22T12:59:47.261Z,97479.96
2022-10-22T13:02:22.352Z,97483.73
2022-10-22T13:05:09.475Z,97483.72
2022-10-22T13:07:47.375Z,97484.13
2022-10-22T13:10:18.900Z,97482.19
2022-10-22T13:12:50.683Z,97477.05
2022-10-22T13:15:28.381Z,97476.30
2022-10-22T13:18:03.225Z,97473.32
2022-10-22T13:20:31.995Z,97475.08
2022-10-22T13:23:06.623Z,97475.09
2022-10-22T13:25:40.946Z,97471.66
2022-10-22T13:28:15.267Z,97478.40
2022-10-22T13:30:52.926Z,97480.34
2022-10-22T13:33:27.280Z,97476.67
2022-10-22T13:35:56.882Z,97473.06
2022-10-22T13:38:26.181Z,97474.98
2022-10-22T13:40:55.472Z,97472.23
2022-10-22T13:43:25.324Z,97467.91
2022-10-22T13:45:56.129Z,97467.70
2022-10-22T13:48:26.041Z,97464.13
2022-10-22T13:50:54.411Z,97463.70
2022-10-22T13:53:24.848Z,97469.03
2022-10-22T13:55:53.444Z,97468.64
2022-10-22T13:58:26.322Z,97468.89
2022-10-22T14:00:59.375Z,97463.75
2022-10-22T14:03:32.594Z,97458.45
2022-10-22T14:06:01.586Z,97464.99
2022-10-22T14:08:30.062Z,97468.34
2022-10-22T14:10:58.648Z,97473.09
2022-10-22T14:13:28.462Z,97472.95
2022-10-22T14:15:56.842Z,97473.22
2022-10-22T14:18:29.208Z,97477.48
2022-10-22T14:21:00.252Z,97473.09
2022-10-22T14:23:30.170Z,97468.88
2022-10-22T14:25:59.019Z,97461.02
2022-10-22T14:28:27.950Z,97458.04
2022-10-22T14:30:56.535Z,97455.05
2022-10-22T14:33:28.799Z,97458.57
2022-10-22T14:36:00.558Z,97456.79
2022-10-22T14:38:29.552Z,97459.15
2022-10-22T14:40:58.239Z,97452.55
2022-10-22T14:43:28.053Z,97455.45
2022-10-22T14:45:57.154Z,97456.27
2022-10-22T14:48:25.727Z,97459.85
2022-10-22T14:50:54.927Z,97454.98
2022-10-22T14:53:23.305Z,97452.16
2022-10-22T14:55:52.504Z,97449.45
2022-10-22T14:58:20.892Z,97454.58
2022-10-22T15:00:49.210Z,97449.09
2022-10-22T15:03:17.534Z,97443.95
2022-10-22T15:05:45.914Z,97446.65
2022-10-22T15:08:15.104Z,97446.10
2022-10-22T15:10:43.587Z,97443.37
2022-10-22T15:13:12.162Z,97440.39
2022-10-22T15:15:41.472Z,97444.04
2022-10-22T15:18:11.077Z,97440.98
2022-10-22T15:20:39.457Z,97437.87
2022-10-22T15:23:08.040Z,97440.15
2022-10-22T15:25:36.418Z,97436.17
2022-10-22T15:28:09.582Z,97437.05
2022-10-22T15:30:38.423Z,97439.91
2022-10-22T15:33:06.774Z,97441.50
2022-10-22T15:35:35.362Z,97440.20
2022-10-22T15:38:06.638Z,97435.66
2022-10-22T15:40:34.878Z,97432.42
2022-10-22T15:43:03.361Z,97431.96
2022-10-22T15:45:31.642Z,97428.36
2022-10-22T15:48:00.014Z,97435.81
2022-10-22T15:50:28.703Z,97440.72
2022-10-22T15:52:57.179Z,97441.09
2022-10-22T15:55:25.671Z,97438.80
2022-10-22T15:57:57.203Z,97438.65
2022-10-22T16:00:27.953Z,97439.13
2022-10-22T16:02:56.235Z,97437.34
2022-10-22T16:05:24.501Z,97434.30
2022-10-22T16:07:55.866Z,97430.83
2022-10-22T16:10:24.748Z,97430.77
2022-10-22T16:12:54.959Z,97425.77
2022-10-22T16:15:23.234Z,97426.26
2022-10-22T16:17:52.126Z,97428.11
2022-10-22T16:20:20.306Z,97429.73
2022-10-22T16:22:50.013Z,97428.95
2022-10-22T16:25:18.489Z,97432.65
2022-10-22T16:27:49.432Z,97431.27
2022-10-22T16:30:18.430Z,97428.05
2022-10-22T16:32:46.698Z,97431.06
2022-10-22T16:35:15.281Z,97430.64
2022-10-22T16:37:43.984Z,97430.33
2022-10-22T16:40:12.984Z,97429.08
2022-10-22T16:42:42.258Z,97433.95
2022-10-22T16:45:11.049Z,97429.95
2022-10-22T16:47:40.274Z,97429.45
2022-10-22T16:50:09.851Z,97429.05
2022-10-22T16:52:38.332Z,97431.56
2022-10-22T16:55:06.931Z,97431.57
2022-10-22T16:57:36.217Z,97430.02
2022-10-22T17:00:05.819Z,97430.52
2022-10-22T17:02:35.535Z,97427.77
2022-10-22T17:05:04.010Z,97427.98
2022-10-22T17:07:32.291Z,97433.64
2022-10-22T17:10:01.508Z,97434.55
2022-10-22T17:12:35.804Z,97428.46
2022-10-22T17:15:07.154Z,97423.37
2022-10-22T17:17:35.427Z,97421.17
2022-10-22T17:20:03.909Z,97413.42
2022-10-22T17:22:32.696Z,97407.20
2022-10-22T17:25:09.263Z,97402.95
2022-10-22T17:27:37.540Z,97402.16
2022-10-22T17:30:06.227Z,97404.94
2022-10-22T17:32:38.934Z,97398.12
2022-10-22T17:35:07.798Z,97388.88
2022-10-22T17:37:36.075Z,97389.44
2022-10-22T17:40:05.290Z,97388.85
2022-10-22T17:42:33.556Z,97392.55
2022-10-22T17:45:01.825Z,97395.23
2022-10-22T17:47:30.100Z,97400.31
2022-10-22T17:49:58.583Z,97398.54
2022-10-22T17:52:26.859Z,97399.29
2022-10-22T17:54:55.332Z,97395.53
2022-10-22T17:57:23.719Z,97396.76
2022-10-22T17:59:51.986Z,97398.00
2022-10-22T18:02:20.793Z,97395.63
2022-10-22T18:04:52.641Z,97395.41
2022-10-22T18:07:21.343Z,97395.10
2022-10-22T18:09:49.736Z,97394.88
2022-10-22T18:12:18.387Z,97395.91
2022-10-22T18:14:47.380Z,97392.30
2022-10-22T18:17:15.759Z,97386.37
2022-10-22T18:19:44.036Z,97384.56
2022-10-22T18:22:12.211Z,97379.25
2022-10-22T18:24:40.485Z,97375.96
2022-10-22T18:27:08.660Z,97378.23
2022-10-22T18:29:37.239Z,97385.13
2022-10-22T18:32:12.131Z,97385.98
2022-10-22T18:34:41.675Z,97388.55
2022-10-22T18:37:10.055Z,97387.43
2022-10-22T18:39:38.329Z,97382.61
2022-10-22T18:42:07.487Z,97380.64
2022-10-22T18:44:36.317Z,97381.61
2022-10-22T18:47:04.802Z,97378.48
2022-10-22T18:49:32.974Z,97377.77
2022-10-22T18:52:01.351Z,97381.04
2022-10-22T18:54:29.624Z,97379.23
2022-10-22T18:57:00.482Z,97385.06
2022-10-22T18:59:31.431Z,97382.83
2022-10-22T19:02:00.509Z,97382.23
2022-10-22T19:04:33.480Z,97377.42
2022-10-22T19:07:01.837Z,97378.55
2022-10-22T19:09:30.751Z,97376.38
2022-10-22T19:12:00.259Z,97371.69
2022-10-22T19:14:28.842Z,97366.61
2022-10-22T19:16:57.046Z,97360.08
2022-10-22T19:19:25.285Z,97360.82
2022-10-22T19:21:53.975Z,97353.59
2022-10-22T19:24:22.972Z,97350.65
2022-10-22T19:26:51.381Z,97342.22
2022-10-22T19:29:20.643Z,97337.45
2022-10-22T19:31:51.287Z,97326.91
2022-10-22T19:34:20.267Z,97322.61
2022-10-22T19:36:48.749Z,97334.79
2022-10-22T19:39:17.756Z,97342.25
2022-10-22T19:41:46.329Z,97349.09
2022-10-22T19:44:14.604Z,97352.23
2022-10-22T19:46:43.016Z,97355.88
2022-10-22T19:49:11.254Z,97354.48
2022-10-22T19:51:40.451Z,97355.11
2022-10-22T19:54:12.002Z,97348.31
2022-10-22T19:56:41.435Z,97345.05
2022-10-22T19:59:09.790Z,97341.45
2022-10-22T20:01:38.110Z,97347.27
2022-10-22T20:04:06.955Z,97344.86
2022-10-22T20:06:35.229Z,97341.65
2022-10-22T20:09:03.583Z,97344.82
2022-10-22T20:11:31.881Z,97343.13
2022-10-22T20:14:00.262Z,97340.02
2022-10-22T20:16:30.104Z,97334.63
2022-10-22T20:19:02.958Z,97337.29
2022-10-22T20:21:31.539Z,97331.61
2022-10-22T20:24:00.433Z,97327.55
2022-10-22T20:26:29.226Z,97315.58
2022-10-22T20:28:58.429Z,97314.88
2022-10-22T20:31:29.876Z,97312.33
2022-10-22T20:33:58.971Z,97308.42
2022-10-22T20:36:28.879Z,97313.47
2022-10-22T20:39:08.724Z,97324.49
2022-10-22T20:41:40.893Z,97326.66
2022-10-22T20:44:14.598Z,97308.95
2022-10-22T20:46:43.309Z,97305.80
2022-10-22T20:49:13.807Z,97318.55
2022-10-22T20:51:43.142Z,97322.92
2022-10-22T20:54:11.794Z,97327.81
2022-10-22T20:56:41.309Z,97333.53
2022-10-22T20:59:11.182Z,97323.50
2022-10-22T21:01:49.908Z,97313.33
2022-10-22T21:04:20.161Z,97303.25
2022-10-22T21:06:50.659Z,97302.37
2022-10-22T21:09:19.871Z,97308.08
2022-10-22T21:11:48.435Z,97309.43
2022-10-22T21:14:19.953Z,97316.55
2022-10-22T21:16:51.781Z,97314.30
2022-10-22T21:19:20.796Z,97319.70
2022-10-22T21:21:50.071Z,97330.84
2022-10-22T21:24:18.653Z,97331.23
2022-10-22T21:26:47.027Z,97324.29
2022-10-22T21:29:15.514Z,97317.20
2022-10-22T21:31:44.209Z,97315.22
2022-10-22T21:34:13.709Z,97319.16
2022-10-22T21:36:42.975Z,97315.70
2022-10-22T21:39:12.607Z,97323.06
2022-10-22T21:41:41.502Z,97331.13
2022-10-22T21:44:10.090Z,97342.79
2022-10-22T21:46:39.074Z,97348.86
2022-10-22T21:49:07.561Z,97348.17
2022-10-22T21:51:38.406Z,97353.77
2022-10-22T21:54:07.088Z,97349.33
2022-10-22T21:56:36.369Z,97339.98
2022-10-22T21:59:06.192Z,97333.98
2022-10-22T22:01:35.834Z,97339.21
2022-10-22T22:04:04.425Z,97338.79
2022-10-22T22:06:33.876Z,97337.02
2022-10-22T22:09:04.395Z,97343.02
2022-10-22T22:11:34.095Z,97340.99
2022-10-22T22:14:02.400Z,97339.55
2022-10-22T22:16:32.415Z,97338.73
2022-10-22T22:21:33.498Z,97345.97
2022-10-22T22:24:03.494Z,97348.23
2022-10-22T22:26:32.593Z,97343.16
2022-10-22T22:29:01.612Z,97330.33
2022-10-22T22:31:32.287Z,97325.33
2022-10-22T22:34:01.015Z,97327.17
2022-10-22T22:36:33.069Z,97327.18
2022-10-22T22:39:02.193Z,97329.51
2022-10-22T22:41:31.575Z,97336.23
2022-10-22T22:44:00.525Z,97337.06
2022-10-22T22:46:30.084Z,97339.38
2022-10-22T22:48:59.058Z,97342.23
2022-10-22T22:51:27.657Z,97345.02
2022-10-22T22:54:01.097Z,97350.65
2022-10-22T22:56:31.466Z,97357.77
2022-10-22T22:59:01.247Z,97359.87
2022-10-22T23:01:33.901Z,97361.04
2022-10-22T23:04:11.677Z,97362.09
2022-10-22T23:06:41.076Z,97366.15
2022-10-22T23:09:12.463Z,97363.55
2022-10-22T23:11:42.104Z,97363.33
2022-10-22T23:14:14.395Z,97359.02
2022-10-22T23:16:46.578Z,97356.98
2022-10-22T23:19:16.366Z,97357.98
2022-10-22T23:21:46.478Z,97356.63
2022-10-22T23:24:17.510Z,97359.91
2022-10-22T23:26:48.042Z,97364.02
2022-10-22T23:29:28.607Z,97364.01
2022-10-22T23:31:59.655Z,97364.00
2022-10-22T23:34:30.582Z,97360.90
2022-10-22T23:36:59.840Z,97371.06
2022-10-22T23:39:29.903Z,97371.92
2022-10-22T23:41:59.014Z,97378.11
2022-10-22T23:44:28.094Z,97377.48
2022-10-22T23:46:57.161Z,97378.69
2022-10-22T23:49:28.124Z,97380.70
2022-10-22T23:51:57.210Z,97380.36
2022-10-22T23:54:26.107Z,97389.45
2022-10-22T23:56:55.334Z,97395.33
2022-10-22T23:59:24.745Z,97405.19
